Terminal Aerodrome Forecast
Issued by NWS Shreveport, LA

Home | Current Version | Previous Version | Text Only | Print | Product List | Glossary On
Versions: 1 2 3 4 5 6 7 8 9 10 11 12 13
000
FTUS44 KSHV 010200 AAA
TAFSHV
TAF AMD
KSHV 010220Z 0102/0124 07007KT 6SM -RA BR SCT007 OVC012
      TEMPO 0102/0105 1 1/2SM SHRA BR OVC007
     FM010500 09006KT 6SM -RA BR OVC007
     FM010900 08005KT 5SM BR OVC007
     FM011800 04007KT P6SM OVC014
     FM012100 04007KT P6SM OVC025=

USA.gov is the U.S. government's official web portal to all federal, state and local government web resources and services.